Time;durP1;ratioP1;P1;durP2;ratioP2;P2;SDS_P1;SDS_P2;PMS_P1;PMS_P2;Temp;Humidity;BMP_temperature;BMP_pressure;BME280_temperature;BME280_humidity;BME280_pressure;Samples;Min_cycle;Max_cycle;Signal;HPM_P1;HPM_P2
2021/12/20 00:01:37;;;;;;;9.53;3.70;;;7.50;99.90;;;;;;5026473;28;21853;-80
2021/12/20 00:04:04;;;;;;;6.90;2.73;;;7.60;99.90;;;;;;5025412;28;20488;-80
2021/12/20 00:06:30;;;;;;;6.57;3.00;;;7.60;99.90;;;;;;5027270;28;20959;-80
2021/12/20 00:08:58;;;;;;;6.30;3.10;;;7.60;99.90;;;;;;5028494;28;21231;-80
2021/12/20 00:11:25;;;;;;;10.50;2.80;;;7.60;99.90;;;;;;5019706;28;20981;-80
2021/12/20 00:13:52;;;;;;;9.67;2.60;;;7.50;99.90;;;;;;5037110;28;20472;-80
2021/12/20 00:16:19;;;;;;;10.70;3.10;;;7.50;99.90;;;;;;5037218;28;20459;-80
2021/12/20 00:18:46;;;;;;;10.67;3.13;;;7.50;99.90;;;;;;5026932;28;20445;-80
2021/12/20 00:21:12;;;;;;;9.50;2.97;;;7.50;99.90;;;;;;5028719;28;20918;-80
2021/12/20 00:23:40;;;;;;;6.90;2.93;;;7.50;99.90;;;;;;5031087;28;20488;-79
2021/12/20 00:26:09;;;;;;;12.97;3.43;;;7.50;99.90;;;;;;5021257;28;20455;-80
2021/12/20 00:28:36;;;;;;;7.17;2.93;;;7.50;99.90;;;;;;5035847;28;20524;-80
2021/12/20 00:31:02;;;;;;;6.30;3.20;;;7.50;99.90;;;;;;5032981;28;20465;-80
2021/12/20 00:33:33;;;;;;;8.93;3.43;;;7.50;99.90;;;;;;5035114;28;20468;-80
2021/12/20 00:36:01;;;;;;;5.00;2.47;;;7.60;99.90;;;;;;5036036;28;20449;-80
2021/12/20 00:41:14;;;;;;;6.60;2.93;;;7.60;99.90;;;;;;5035929;28;20522;-79
2021/12/20 00:43:41;;;;;;;7.67;3.20;;;7.50;99.90;;;;;;5036105;28;20503;-80
2021/12/20 00:46:08;;;;;;;10.00;3.97;;;7.30;99.90;;;;;;5036204;28;20456;-80
2021/12/20 00:48:35;;;;;;;7.90;3.60;;;7.40;99.90;;;;;;5036457;28;20539;-80
2021/12/20 00:51:02;;;;;;;12.00;3.40;;;7.40;99.90;;;;;;5035653;28;20523;-80
2021/12/20 00:53:29;;;;;;;9.70;3.20;;;7.40;99.90;;;;;;5037237;28;20471;-81
2021/12/20 00:55:55;;;;;;;9.40;3.03;;;7.40;99.90;;;;;;5037231;28;20449;-81
2021/12/20 00:58:24;;;;;;;12.50;3.43;;;7.40;99.90;;;;;;5037228;28;20453;-81
2021/12/20 01:00:52;;;;;;;9.70;2.70;;;7.40;99.90;;;;;;5031961;28;20845;-80
2021/12/20 01:03:21;;;;;;;16.30;3.47;;;7.50;99.90;;;;;;5027861;28;20997;-81
2021/12/20 01:05:48;;;;;;;10.87;3.13;;;7.50;99.90;;;;;;5036882;28;20810;-81
2021/12/20 01:08:17;;;;;;;10.07;3.13;;;7.50;99.90;;;;;;5036553;28;20538;-80
2021/12/20 01:10:49;;;;;;;10.53;3.40;;;7.50;99.90;;;;;;5036276;28;21044;-81
2021/12/20 01:13:19;;;;;;;6.77;2.50;;;7.50;99.90;;;;;;5036970;28;20518;-80
2021/12/20 01:15:51;;;;;;;10.43;2.80;;;7.50;99.90;;;;;;5036183;28;20460;-80
2021/12/20 01:18:19;;;;;;;6.67;2.70;;;7.50;99.90;;;;;;5036376;28;20461;-80
2021/12/20 01:20:46;;;;;;;7.17;3.10;;;7.50;99.90;;;;;;5035813;28;20940;-80
2021/12/20 01:23:13;;;;;;;8.30;2.27;;;7.50;99.90;;;;;;5036670;28;20506;-81
2021/12/20 01:25:41;;;;;;;5.70;2.20;;;7.40;99.90;;;;;;5037030;28;20453;-80
2021/12/20 01:28:09;;;;;;;7.03;3.03;;;7.50;99.90;;;;;;5037066;28;20448;-80
2021/12/20 01:30:37;;;;;;;11.90;3.20;;;7.40;99.90;;;;;;5021584;28;20820;-81
2021/12/20 01:33:08;;;;;;;9.03;2.40;;;7.30;99.90;;;;;;5037666;28;20996;-80
2021/12/20 01:35:35;;;;;;;12.13;2.80;;;7.30;99.90;;;;;;5037954;28;20635;-80
2021/12/20 01:38:02;;;;;;;14.47;2.80;;;7.30;99.90;;;;;;5035625;28;21012;-80
2021/12/20 01:40:29;;;;;;;8.77;3.67;;;7.40;99.90;;;;;;5035912;28;20467;-81
2021/12/20 01:42:58;;;;;;;9.87;3.20;;;7.40;99.90;;;;;;5018650;28;20512;-80
2021/12/20 01:45:27;;;;;;;8.53;2.60;;;7.30;99.90;;;;;;5034848;28;20455;-80
2021/12/20 01:48:03;;;;;;;10.87;3.07;;;7.30;99.90;;;;;;5035005;28;20484;-81
2021/12/20 01:51:12;;;;;;;18.07;3.70;;;7.30;99.90;;;;;;5035304;28;20972;-81
2021/12/20 01:53:39;;;;;;;18.90;3.70;;;7.20;99.90;;;;;;5035052;28;20570;-81
2021/12/20 01:56:07;;;;;;;14.57;3.00;;;7.10;99.90;;;;;;5035176;28;20468;-81
2021/12/20 01:58:34;;;;;;;12.47;2.70;;;7.20;99.90;;;;;;5018754;28;20463;-80
2021/12/20 02:01:09;;;;;;;8.57;2.63;;;7.20;99.90;;;;;;5023296;28;21003;-80
2021/12/20 02:03:38;;;;;;;6.60;2.37;;;7.20;99.90;;;;;;5035103;28;20520;-80
2021/12/20 02:06:14;;;;;;;14.13;3.47;;;7.20;99.90;;;;;;5035005;28;20455;-80
2021/12/20 02:08:41;;;;;;;10.00;2.60;;;7.20;99.90;;;;;;5035195;28;20509;-80
2021/12/20 02:11:09;;;;;;;13.30;3.53;;;7.20;99.90;;;;;;5030688;28;20449;-80
2021/12/20 02:13:38;;;;;;;10.93;2.73;;;7.20;99.90;;;;;;5024065;28;21003;-80
2021/12/20 02:16:06;;;;;;;13.57;3.30;;;7.20;99.90;;;;;;5034972;28;20455;-80
2021/12/20 02:18:34;;;;;;;8.90;3.00;;;7.20;99.90;;;;;;5035168;28;20524;-81
2021/12/20 02:21:03;;;;;;;7.43;2.93;;;7.20;99.90;;;;;;5034511;28;20453;-80
2021/12/20 02:23:31;;;;;;;10.63;2.80;;;7.30;99.90;;;;;;5034735;28;20574;-81
2021/12/20 02:25:59;;;;;;;9.47;2.40;;;7.20;99.90;;;;;;5034565;28;20460;-80
2021/12/20 02:28:29;;;;;;;5.57;2.00;;;7.20;99.90;;;;;;5034958;28;20957;-80
2021/12/20 02:36:55;;;;;;;11.73;3.20;;;7.30;99.90;;;;;;5034654;28;20483;-80
2021/12/20 02:39:22;;;;;;;10.90;2.63;;;7.20;99.90;;;;;;5046938;28;20478;-81
2021/12/20 02:41:49;;;;;;;8.20;2.07;;;7.20;99.90;;;;;;5034148;28;20464;-81
2021/12/20 02:44:18;;;;;;;16.23;3.10;;;7.20;99.90;;;;;;5034161;28;20492;-81
2021/12/20 02:46:51;;;;;;;9.50;2.40;;;7.20;99.90;;;;;;5035463;28;20459;-80
2021/12/20 02:49:20;;;;;;;8.77;2.37;;;7.20;99.90;;;;;;5034301;28;20464;-80
2021/12/20 02:51:51;;;;;;;11.97;2.43;;;7.20;99.90;;;;;;5033279;28;20956;-80
2021/12/20 02:54:20;;;;;;;8.87;3.27;;;7.20;99.90;;;;;;5034072;28;21002;-81
2021/12/20 02:56:47;;;;;;;14.37;3.70;;;7.20;99.90;;;;;;5034212;28;20466;-80
2021/12/20 02:59:15;;;;;;;8.73;2.70;;;7.20;99.90;;;;;;5030486;28;20463;-80
2021/12/20 03:01:43;;;;;;;13.63;4.90;;;7.10;99.90;;;;;;5033543;28;20452;-80
2021/12/20 03:04:11;;;;;;;10.53;2.53;;;7.20;99.90;;;;;;5034297;28;20869;-81
2021/12/20 03:06:41;;;;;;;13.13;2.63;;;7.10;99.90;;;;;;5024351;28;20452;-80
2021/12/20 03:09:14;;;;;;;8.60;2.73;;;7.10;99.90;;;;;;5015271;28;20471;-80
2021/12/20 03:11:42;;;;;;;14.20;2.53;;;7.10;99.90;;;;;;5027143;28;20452;-80
2021/12/20 03:14:15;;;;;;;9.83;2.57;;;7.10;99.90;;;;;;5035051;28;20840;-79
2021/12/20 03:16:42;;;;;;;10.30;2.77;;;7.10;99.90;;;;;;5035726;28;20465;-80
2021/12/20 03:19:09;;;;;;;10.83;2.83;;;7.10;99.90;;;;;;5033491;28;20467;-80
2021/12/20 03:21:36;;;;;;;11.33;2.93;;;7.10;99.90;;;;;;5032101;28;20458;-80
2021/12/20 03:24:03;;;;;;;12.00;2.50;;;7.10;99.90;;;;;;5034183;28;20494;-80
2021/12/20 03:26:32;;;;;;;11.07;2.17;;;7.10;99.90;;;;;;5032957;28;20452;-81
2021/12/20 03:28:59;;;;;;;7.13;2.80;;;7.10;99.90;;;;;;5034523;28;20449;-81
2021/12/20 03:31:26;;;;;;;8.30;2.83;;;7.10;99.90;;;;;;5034258;28;20449;-81
2021/12/20 03:33:52;;;;;;;15.37;4.83;;;7.10;99.90;;;;;;5032379;28;20485;-81
2021/12/20 03:36:20;;;;;;;12.30;3.00;;;7.10;99.90;;;;;;5017962;28;20462;-81
2021/12/20 03:38:46;;;;;;;16.57;3.30;;;7.10;99.90;;;;;;5034401;28;20834;-80
2021/12/20 03:41:13;;;;;;;5.67;2.43;;;7.10;99.90;;;;;;5034108;28;21284;-81
2021/12/20 03:43:42;;;;;;;7.20;1.93;;;7.10;99.90;;;;;;5034621;28;20495;-81
2021/12/20 03:46:09;;;;;;;8.17;2.77;;;7.00;99.90;;;;;;5032910;28;20452;-80
2021/12/20 03:48:36;;;;;;;9.53;2.03;;;7.10;99.90;;;;;;5032926;28;20455;-80
2021/12/20 03:51:04;;;;;;;9.30;2.80;;;7.10;99.90;;;;;;5033307;28;20475;-80
2021/12/20 03:53:33;;;;;;;19.30;3.53;;;7.10;99.90;;;;;;5034695;28;20854;-81
2021/12/20 03:56:00;;;;;;;8.70;2.70;;;7.10;99.90;;;;;;5035169;28;20796;-80
2021/12/20 03:58:27;;;;;;;17.13;3.70;;;7.10;99.90;;;;;;5033686;28;20454;-80
2021/12/20 04:00:56;;;;;;;13.77;3.80;;;7.10;99.90;;;;;;5033174;28;20974;-81
2021/12/20 04:03:23;;;;;;;10.40;2.37;;;7.10;99.90;;;;;;5020319;28;20483;-81
2021/12/20 04:05:50;;;;;;;8.03;2.33;;;7.20;99.90;;;;;;5032843;28;20456;-81
2021/12/20 04:08:17;;;;;;;13.27;2.80;;;7.10;99.90;;;;;;5037882;28;20517;-81
2021/12/20 04:10:45;;;;;;;12.17;2.77;;;7.10;99.90;;;;;;5037965;28;20533;-81
2021/12/20 04:13:11;;;;;;;14.60;3.60;;;7.10;99.90;;;;;;5039387;28;20563;-81
2021/12/20 04:15:38;;;;;;;9.60;2.73;;;7.10;99.90;;;;;;5038497;28;20447;-81
2021/12/20 04:18:07;;;;;;;14.80;2.40;;;7.10;99.90;;;;;;5020129;28;20465;-81
2021/12/20 04:20:34;;;;;;;8.60;2.83;;;7.10;99.90;;;;;;5028317;28;20453;-80
2021/12/20 04:23:01;;;;;;;9.73;2.93;;;7.10;99.90;;;;;;5037133;28;20479;-81
2021/12/20 04:25:27;;;;;;;8.53;2.70;;;7.10;99.90;;;;;;5037159;28;20486;-81
2021/12/20 04:27:54;;;;;;;9.47;2.47;;;7.10;99.90;;;;;;5037616;28;20448;-81
2021/12/20 04:30:21;;;;;;;7.30;2.50;;;7.00;99.90;;;;;;5033117;28;20479;-81
2021/12/20 04:32:48;;;;;;;16.27;3.50;;;7.10;99.90;;;;;;5017335;28;20465;-80
2021/12/20 04:35:17;;;;;;;9.77;3.27;;;7.10;99.90;;;;;;5027542;28;20453;-80
2021/12/20 04:37:46;;;;;;;14.87;4.00;;;7.10;99.90;;;;;;5036935;28;20457;-80
2021/12/20 04:40:18;;;;;;;11.83;2.97;;;7.10;99.90;;;;;;5036014;28;20964;-81
2021/12/20 04:42:46;;;;;;;8.30;2.47;;;7.00;99.90;;;;;;5037504;28;20488;-81
2021/12/20 04:45:14;;;;;;;10.80;3.40;;;7.00;99.90;;;;;;5035156;28;20488;-80
2021/12/20 04:47:41;;;;;;;16.47;3.40;;;7.00;99.90;;;;;;5037222;28;20952;-81
2021/12/20 04:50:09;;;;;;;16.30;3.10;;;6.90;99.90;;;;;;5035708;28;20456;-81
2021/12/20 04:52:37;;;;;;;11.20;3.00;;;6.80;99.90;;;;;;5036041;28;20512;-80
2021/12/20 04:55:05;;;;;;;11.43;2.87;;;6.80;99.90;;;;;;5038197;28;20547;-83
2021/12/20 04:57:32;;;;;;;15.93;3.57;;;6.80;99.90;;;;;;5040469;28;20458;-81
2021/12/20 05:00:01;;;;;;;8.23;2.50;;;6.70;99.90;;;;;;5041813;28;20455;-83
2021/12/20 05:02:28;;;;;;;18.90;3.93;;;6.70;99.90;;;;;;5040453;28;20470;-81
2021/12/20 05:04:55;;;;;;;4.37;1.23;;;6.70;99.90;;;;;;5042011;28;20488;-80
2021/12/20 05:07:23;;;;;;;11.10;3.10;;;9.70;99.90;;;;;;5038609;28;20451;-82
2021/12/20 05:09:57;;;;;;;16.77;3.80;;;10.20;99.90;;;;;;5035849;28;20483;-81
2021/12/20 05:12:23;;;;;;;12.50;2.93;;;10.60;99.90;;;;;;5034532;28;20485;-84
2021/12/20 05:14:50;;;;;;;13.33;2.63;;;10.80;99.90;;;;;;5025082;28;20543;-80
2021/12/20 05:17:17;;;;;;;10.10;2.93;;;11.10;99.90;;;;;;5054373;28;20539;-85
2021/12/20 05:19:44;;;;;;;13.77;3.80;;;11.20;99.90;;;;;;5053068;28;20455;-84
2021/12/20 05:22:12;;;;;;;16.07;4.93;;;11.10;99.90;;;;;;5038477;28;20474;-83
2021/12/20 05:24:40;;;;;;;19.23;4.50;;;9.80;99.90;;;;;;5038369;28;20488;-82
2021/12/20 05:27:08;;;;;;;19.97;3.23;;;9.20;99.90;;;;;;5031314;28;20466;-82
2021/12/20 05:29:35;;;;;;;14.03;3.93;;;8.40;99.90;;;;;;5018553;28;20828;-82
2021/12/20 05:32:04;;;;;;;16.63;3.37;;;7.70;99.90;;;;;;5018307;28;20512;-82
2021/12/20 05:34:31;;;;;;;17.63;4.30;;;7.20;99.90;;;;;;5019744;28;20816;-82
2021/12/20 05:36:58;;;;;;;22.33;4.10;;;6.90;99.90;;;;;;5019121;28;20445;-82
2021/12/20 05:39:25;;;;;;;9.90;3.00;;;6.70;99.90;;;;;;5019253;28;20449;-82
2021/12/20 05:41:52;;;;;;;24.97;4.77;;;6.60;99.90;;;;;;5031551;28;20457;-82
2021/12/20 05:44:20;;;;;;;19.70;5.27;;;6.40;99.90;;;;;;5038904;28;20481;-82
2021/12/20 05:46:47;;;;;;;19.80;4.10;;;6.20;99.90;;;;;;5038690;28;20451;-83
2021/12/20 05:49:14;;;;;;;21.20;4.10;;;6.00;99.90;;;;;;5038133;28;20455;-81
2021/12/20 05:51:41;;;;;;;21.43;4.70;;;5.90;99.90;;;;;;5039487;28;20449;-81
2021/12/20 05:54:08;;;;;;;9.73;3.00;;;5.70;99.90;;;;;;5039171;28;20450;-82
2021/12/20 05:56:34;;;;;;;12.93;3.60;;;5.50;99.90;;;;;;5020734;28;20475;-83
2021/12/20 05:59:01;;;;;;;12.90;3.50;;;5.50;99.90;;;;;;5019080;28;20456;-80
2021/12/20 06:01:29;;;;;;;14.97;3.60;;;5.30;99.90;;;;;;5022585;28;20470;-81
2021/12/20 06:03:57;;;;;;;16.63;3.60;;;5.20;99.90;;;;;;5022684;28;20539;-83
2021/12/20 06:06:26;;;;;;;19.40;4.60;;;5.10;99.90;;;;;;5038169;28;20807;-79
2021/12/20 06:08:53;;;;;;;17.50;3.63;;;5.00;99.90;;;;;;5041114;28;20507;-82
2021/12/20 06:11:20;;;;;;;17.57;4.00;;;5.00;99.90;;;;;;5040284;28;20994;-81
2021/12/20 06:13:47;;;;;;;17.07;3.77;;;4.90;99.90;;;;;;5032563;28;20569;-82
2021/12/20 06:16:14;;;;;;;20.73;4.30;;;4.80;99.90;;;;;;5029803;28;20509;-81
2021/12/20 06:18:42;;;;;;;21.80;4.57;;;4.70;99.90;;;;;;5024170;28;20546;-78
2021/12/20 06:21:09;;;;;;;19.57;4.33;;;4.60;99.90;;;;;;5028484;28;20540;-78
2021/12/20 06:23:36;;;;;;;15.30;4.73;;;4.60;99.90;;;;;;5009291;28;20487;-80
2021/12/20 06:26:03;;;;;;;16.00;3.97;;;4.50;99.90;;;;;;5026732;28;21014;-80
2021/12/20 06:28:30;;;;;;;13.90;3.40;;;4.40;99.90;;;;;;5027661;28;20446;-78
2021/12/20 06:30:57;;;;;;;11.97;3.90;;;4.30;99.90;;;;;;5017565;28;20447;-81
2021/12/20 06:33:24;;;;;;;18.50;4.23;;;4.30;99.90;;;;;;5024596;28;20466;-80
2021/12/20 06:35:54;;;;;;;17.20;4.37;;;4.20;99.90;;;;;;5017429;28;20452;-79
2021/12/20 06:38:22;;;;;;;25.13;4.40;;;4.20;99.90;;;;;;5036722;28;20972;-81
2021/12/20 06:40:50;;;;;;;10.90;3.40;;;4.10;99.90;;;;;;5033669;28;20523;-80
2021/12/20 06:43:17;;;;;;;11.97;4.10;;;4.00;99.90;;;;;;5015357;28;20481;-81
2021/12/20 06:45:44;;;;;;;13.50;3.97;;;4.00;99.90;;;;;;5034531;28;20492;-81
2021/12/20 06:48:11;;;;;;;14.03;3.83;;;3.90;99.90;;;;;;5030575;28;20437;-78
2021/12/20 06:50:38;;;;;;;10.57;3.67;;;3.90;99.90;;;;;;5022628;28;20898;-80
2021/12/20 06:53:07;;;;;;;16.43;3.93;;;3.80;99.90;;;;;;5015913;28;20466;-79
2021/12/20 06:55:34;;;;;;;18.30;4.07;;;3.90;99.90;;;;;;5014473;28;20539;-82
2021/12/20 06:58:01;;;;;;;15.40;3.93;;;3.70;99.90;;;;;;5014506;28;20464;-79
2021/12/20 07:00:28;;;;;;;15.60;3.20;;;3.80;99.90;;;;;;5012949;28;20554;-78
2021/12/20 07:02:55;;;;;;;10.70;3.47;;;3.70;99.90;;;;;;5013869;28;20462;-78
2021/12/20 07:05:23;;;;;;;14.30;3.93;;;3.60;99.90;;;;;;5012825;28;20494;-79
2021/12/20 07:07:50;;;;;;;11.70;3.67;;;3.60;99.90;;;;;;5013265;28;20465;-78
2021/12/20 07:10:18;;;;;;;17.13;4.03;;;3.60;99.90;;;;;;5013719;28;20457;-79
2021/12/20 07:12:45;;;;;;;10.13;3.73;;;3.50;99.90;;;;;;5017731;28;20468;-79
2021/12/20 07:15:14;;;;;;;14.43;3.83;;;3.50;99.90;;;;;;5029274;28;20467;-77
2021/12/20 07:17:42;;;;;;;12.27;4.30;;;3.40;99.90;;;;;;5031761;28;20461;-79
2021/12/20 07:20:10;;;;;;;14.03;3.77;;;3.40;99.90;;;;;;5030332;28;20441;-79
2021/12/20 07:22:37;;;;;;;16.07;4.30;;;3.40;99.90;;;;;;5023696;28;20472;-78
2021/12/20 07:25:04;;;;;;;12.53;4.13;;;3.40;99.90;;;;;;5030852;28;21019;-77
2021/12/20 07:27:33;;;;;;;11.17;3.30;;;3.30;99.90;;;;;;5031590;28;20945;-78
2021/12/20 07:30:00;;;;;;;10.53;3.10;;;3.30;99.90;;;;;;5015533;28;20446;-79
2021/12/20 07:32:27;;;;;;;13.30;4.10;;;3.30;99.90;;;;;;5011943;28;20477;-80
2021/12/20 07:34:54;;;;;;;14.50;4.77;;;3.30;99.90;;;;;;5030981;28;20552;-79
2021/12/20 07:37:26;;;;;;;13.20;3.83;;;3.20;99.90;;;;;;5030180;28;20960;-78
2021/12/20 07:39:53;;;;;;;11.00;3.50;;;3.20;99.90;;;;;;5032989;28;20510;-79
2021/12/20 07:42:20;;;;;;;9.67;3.83;;;3.10;99.90;;;;;;5035312;28;20508;-79
2021/12/20 07:44:48;;;;;;;12.97;3.93;;;3.10;99.90;;;;;;5024990;28;20497;-79
2021/12/20 07:47:15;;;;;;;11.33;4.00;;;3.10;99.90;;;;;;5015253;28;20460;-78
2021/12/20 07:49:42;;;;;;;12.67;2.97;;;3.10;99.90;;;;;;5015027;28;20450;-78
2021/12/20 07:52:09;;;;;;;19.57;7.13;;;3.10;99.90;;;;;;5017981;28;20853;-78
2021/12/20 07:54:36;;;;;;;20.93;6.43;;;3.10;99.90;;;;;;5022621;28;20457;-79
2021/12/20 07:57:03;;;;;;;15.57;4.83;;;3.10;99.90;;;;;;5038709;28;20459;-79
2021/12/20 07:59:30;;;;;;;11.10;4.53;;;3.10;99.90;;;;;;5045515;28;20449;-80
2021/12/20 08:01:58;;;;;;;13.80;4.30;;;3.10;99.90;;;;;;5040816;28;20475;-78
2021/12/20 08:04:25;;;;;;;15.10;5.70;;;3.10;99.90;;;;;;5034970;28;20459;-79
2021/12/20 08:06:52;;;;;;;23.13;5.03;;;3.20;99.90;;;;;;5030822;28;20480;-78
2021/12/20 08:09:18;;;;;;;18.47;5.33;;;3.20;99.90;;;;;;5034210;28;20483;-79
2021/12/20 08:11:45;;;;;;;30.50;6.60;;;3.20;99.90;;;;;;5033895;28;20448;-77
2021/12/20 08:14:12;;;;;;;19.33;6.63;;;3.30;99.90;;;;;;5032058;28;20495;-78
2021/12/20 08:16:39;;;;;;;27.97;4.80;;;3.30;99.90;;;;;;5021739;28;20446;-80
2021/12/20 08:19:08;;;;;;;22.93;5.00;;;3.30;99.90;;;;;;5014495;28;20469;-78
2021/12/20 08:21:35;;;;;;;20.40;4.93;;;3.40;99.90;;;;;;5032735;28;20453;-78
2021/12/20 08:24:02;;;;;;;14.00;4.37;;;3.40;99.90;;;;;;5032798;28;20925;-77
2021/12/20 08:26:28;;;;;;;17.10;4.43;;;3.40;99.90;;;;;;5022729;28;20482;-77
2021/12/20 08:28:55;;;;;;;17.57;5.37;;;3.40;99.90;;;;;;5034643;28;20488;-78
2021/12/20 08:31:22;;;;;;;14.10;4.10;;;3.50;99.90;;;;;;5028239;28;20962;-79
2021/12/20 08:33:50;;;;;;;14.57;5.57;;;3.50;99.90;;;;;;5015182;28;20846;-76
2021/12/20 08:36:18;;;;;;;12.50;4.10;;;3.40;99.90;;;;;;5023598;28;20536;-80
2021/12/20 08:38:46;;;;;;;18.53;5.00;;;3.40;99.90;;;;;;5025637;28;20461;-78
2021/12/20 08:41:13;;;;;;;18.40;5.97;;;3.40;99.90;;;;;;5029660;28;21020;-77
2021/12/20 08:43:40;;;;;;;18.50;5.50;;;3.40;99.90;;;;;;5030124;28;20487;-79
2021/12/20 08:46:09;;;;;;;19.57;6.00;;;3.40;99.90;;;;;;5032261;28;20488;-78
2021/12/20 08:48:36;;;;;;;14.13;5.03;;;3.50;99.90;;;;;;5026594;28;20457;-78
2021/12/20 08:51:04;;;;;;;18.73;5.40;;;3.60;99.90;;;;;;5024997;28;20456;-80
2021/12/20 08:53:32;;;;;;;15.83;5.73;;;3.60;99.90;;;;;;5025526;28;20859;-82
2021/12/20 08:55:59;;;;;;;18.50;5.37;;;3.70;99.90;;;;;;5028399;28;20449;-79
2021/12/20 08:58:26;;;;;;;12.13;4.60;;;3.70;99.90;;;;;;5019544;28;20831;-80
2021/12/20 09:00:54;;;;;;;15.17;5.80;;;3.80;99.90;;;;;;5020833;28;20541;-80
2021/12/20 09:03:20;;;;;;;21.10;6.30;;;3.80;99.90;;;;;;5028345;28;20480;-78
2021/12/20 09:05:48;;;;;;;15.40;7.03;;;3.80;99.90;;;;;;5026424;28;21039;-79
2021/12/20 09:08:17;;;;;;;14.43;5.97;;;3.80;99.90;;;;;;5034690;28;20532;-80
2021/12/20 09:10:45;;;;;;;14.47;7.23;;;3.90;99.90;;;;;;5020815;28;20511;-78
2021/12/20 09:13:12;;;;;;;14.50;6.10;;;3.90;99.90;;;;;;5032375;28;20480;-78
2021/12/20 09:15:39;;;;;;;16.20;5.67;;;4.00;99.90;;;;;;5004976;28;20457;-82
2021/12/20 09:18:08;;;;;;;18.87;6.30;;;4.00;99.90;;;;;;5023860;28;20489;-80
2021/12/20 09:20:36;;;;;;;16.27;6.10;;;4.00;99.90;;;;;;5015465;28;20486;-78
2021/12/20 09:23:05;;;;;;;18.47;6.93;;;4.10;99.90;;;;;;5018128;28;20473;-80
2021/12/20 09:25:34;;;;;;;12.63;4.80;;;4.10;99.90;;;;;;5030613;28;20617;-81
2021/12/20 09:28:04;;;;;;;15.90;7.93;;;4.10;99.90;;;;;;5024442;28;20449;-80
2021/12/20 09:30:32;;;;;;;15.93;6.30;;;4.20;99.90;;;;;;5001809;28;20994;-79
2021/12/20 09:32:58;;;;;;;31.83;7.40;;;4.20;99.90;;;;;;5013250;28;20486;-80
2021/12/20 09:35:26;;;;;;;19.17;6.43;;;4.30;99.90;;;;;;5029725;28;20461;-80
2021/12/20 09:37:52;;;;;;;20.83;7.60;;;4.30;99.90;;;;;;5018872;28;20773;-80
2021/12/20 09:40:31;;;;;;;14.40;5.37;;;4.40;99.90;;;;;;5027544;28;20520;-79
2021/12/20 09:42:59;;;;;;;14.80;5.03;;;4.30;99.90;;;;;;5025449;28;20489;-81
2021/12/20 09:45:28;;;;;;;18.23;4.63;;;4.40;99.90;;;;;;5018414;28;20499;-80
2021/12/20 09:47:55;;;;;;;27.93;6.27;;;4.50;99.90;;;;;;5014820;28;20450;-81
2021/12/20 09:50:22;;;;;;;17.33;4.13;;;4.60;99.90;;;;;;5014626;28;20441;-81
2021/12/20 09:52:49;;;;;;;17.07;4.50;;;4.60;99.90;;;;;;5006966;28;20495;-80
2021/12/20 09:55:17;;;;;;;21.37;4.13;;;4.60;99.90;;;;;;5022434;28;20455;-79
2021/12/20 09:57:47;;;;;;;16.67;4.37;;;4.70;99.90;;;;;;5006539;28;20464;-79
2021/12/20 10:00:17;;;;;;;16.33;5.30;;;4.70;99.90;;;;;;5025882;28;20449;-79
2021/12/20 10:02:47;;;;;;;25.30;6.10;;;4.70;99.90;;;;;;5007785;28;20474;-78
2021/12/20 10:05:15;;;;;;;28.93;6.30;;;4.80;99.90;;;;;;5029547;28;20450;-79
2021/12/20 10:07:47;;;;;;;15.90;5.00;;;4.90;99.90;;;;;;5032695;28;20480;-80
2021/12/20 10:10:14;;;;;;;24.37;8.40;;;4.90;99.90;;;;;;5033436;28;20459;-79
2021/12/20 10:12:49;;;;;;;33.30;16.73;;;4.90;99.90;;;;;;5033453;28;21022;-79
2021/12/20 10:15:16;;;;;;;40.53;23.00;;;5.00;99.90;;;;;;5034652;28;20445;-81
2021/12/20 10:17:55;;;;;;;49.03;33.00;;;5.00;99.90;;;;;;5031981;28;21149;-79
2021/12/20 10:20:24;;;;;;;46.10;25.03;;;5.00;99.90;;;;;;5026106;28;20459;-80
2021/12/20 10:22:52;;;;;;;36.83;16.93;;;5.00;99.90;;;;;;5025341;28;20473;-80
2021/12/20 10:25:28;;;;;;;26.80;10.60;;;5.10;99.90;;;;;;5026092;28;20460;-81
2021/12/20 10:28:04;;;;;;;16.00;6.23;;;5.10;99.90;;;;;;5035778;28;20881;-80
2021/12/20 10:30:34;;;;;;;19.00;5.43;;;5.20;99.90;;;;;;5033392;28;20449;-81
2021/12/20 10:33:02;;;;;;;19.47;6.00;;;5.20;99.90;;;;;;5023083;28;20991;-80
2021/12/20 10:35:31;;;;;;;22.40;5.60;;;5.20;99.90;;;;;;5042091;28;20553;-80
2021/12/20 10:38:01;;;;;;;18.43;5.63;;;5.20;99.90;;;;;;5038770;28;20517;-80
2021/12/20 10:40:29;;;;;;;22.00;5.87;;;5.30;99.90;;;;;;5043059;28;20534;-83
2021/12/20 10:42:57;;;;;;;15.57;5.63;;;5.60;99.90;;;;;;5035510;28;20537;-82
2021/12/20 10:45:26;;;;;;;20.30;5.40;;;5.90;99.90;;;;;;5026346;28;20492;-81
2021/12/20 10:47:53;;;;;;;15.13;5.40;;;6.00;99.90;;;;;;5029840;28;20466;-81
2021/12/20 10:50:24;;;;;;;22.90;5.87;;;6.20;99.90;;;;;;5015077;28;20478;-80
2021/12/20 10:52:51;;;;;;;17.50;7.00;;;6.20;99.90;;;;;;5026071;28;20553;-83
2021/12/20 10:55:37;;;;;;;21.33;5.20;;;6.20;99.90;;;;;;5034549;28;20948;-80
2021/12/20 10:58:33;;;;;;;15.93;4.87;;;6.30;99.90;;;;;;5025397;28;20454;-80
2021/12/20 11:01:45;;;;;;;20.97;4.70;;;6.20;99.90;;;;;;5012083;28;20460;-80
2021/12/20 11:04:15;;;;;;;20.17;6.07;;;6.20;99.90;;;;;;5016348;28;20975;-81
2021/12/20 11:09:31;;;;;;;17.43;4.73;;;6.00;99.90;;;;;;5022387;28;20538;-79
2021/12/20 11:12:00;;;;;;;22.80;5.30;;;6.00;99.90;;;;;;5017220;28;20551;-79
2021/12/20 11:14:29;;;;;;;16.10;5.30;;;6.10;99.90;;;;;;5021698;28;20486;-82
2021/12/20 11:16:58;;;;;;;17.77;5.73;;;6.20;99.90;;;;;;5017941;28;20869;-78
2021/12/20 11:19:27;;;;;;;20.57;5.57;;;6.20;99.90;;;;;;5021994;28;20446;-77
2021/12/20 11:22:02;;;;;;;19.67;4.60;;;6.40;99.90;;;;;;5028194;28;20531;-79
2021/12/20 11:24:33;;;;;;;11.97;4.97;;;7.10;99.90;;;;;;5032809;28;20462;-78
2021/12/20 11:27:02;;;;;;;11.33;3.57;;;8.40;99.90;;;;;;5018812;28;20570;-77
2021/12/20 11:29:30;;;;;;;15.67;4.73;;;13.10;99.90;;;;;;5027700;28;20446;-83
2021/12/20 11:31:59;;;;;;;12.80;4.00;;;15.40;99.90;;;;;;5023793;28;20495;-83
2021/12/20 11:34:26;;;;;;;9.77;3.30;;;15.60;99.90;;;;;;5020929;28;20452;-80
2021/12/20 11:36:54;;;;;;;13.57;3.70;;;15.80;99.90;;;;;;5036424;28;20444;-81
2021/12/20 11:39:22;;;;;;;10.23;3.53;;;16.00;99.90;;;;;;5036716;28;20462;-80
2021/12/20 11:41:49;;;;;;;15.27;3.73;;;13.90;99.90;;;;;;5033857;28;20538;-81
2021/12/20 11:44:20;;;;;;;11.27;3.17;;;13.00;99.90;;;;;;5043536;28;20480;-81
2021/12/20 11:47:19;;;;;;;15.93;3.37;;;12.90;99.90;;;;;;5027250;28;20570;-80
2021/12/20 11:49:55;;;;;;;19.40;3.60;;;12.60;99.90;;;;;;5030745;28;20462;-82
2021/12/20 11:52:22;;;;;;;10.90;3.50;;;12.00;99.90;;;;;;5024573;28;21076;-84
2021/12/20 11:54:52;;;;;;;12.67;3.97;;;12.10;99.90;;;;;;5034818;28;20466;-80
2021/12/20 11:57:35;;;;;;;13.13;4.03;;;13.50;99.90;;;;;;5021478;28;20507;-81
2021/12/20 12:00:19;;;;;;;10.50;3.80;;;14.10;99.90;;;;;;5021297;28;20474;-80
2021/12/20 12:02:48;;;;;;;13.90;3.67;;;16.30;99.90;;;;;;5025275;28;20474;-82
2021/12/20 12:05:18;;;;;;;11.87;3.47;;;20.30;95.30;;;;;;5031117;28;20466;-82
2021/12/20 12:07:48;;;;;;;9.27;3.40;;;20.40;87.40;;;;;;5026032;28;20512;-82
2021/12/20 12:10:18;;;;;;;15.20;3.87;;;21.50;73.90;;;;;;5027242;28;20459;-83
2021/12/20 12:12:47;;;;;;;9.00;3.43;;;21.50;67.90;;;;;;5029497;28;20470;-81
2021/12/20 12:15:20;;;;;;;8.20;2.83;;;20.40;63.20;;;;;;5030390;28;20520;-83
2021/12/20 12:17:56;;;;;;;7.67;2.80;;;20.00;63.20;;;;;;5030826;28;20965;-82
2021/12/20 12:20:54;;;;;;;8.17;4.13;;;14.90;89.10;;;;;;5037633;28;20447;-82
2021/12/20 12:23:24;;;;;;;12.80;3.90;;;14.60;71.40;;;;;;5026659;28;20490;-81
2021/12/20 12:25:55;;;;;;;10.03;3.17;;;13.00;74.30;;;;;;5036518;28;20453;-82
2021/12/20 12:28:24;;;;;;;9.47;3.77;;;11.80;79.30;;;;;;5018488;28;20474;-81
2021/12/20 12:31:00;;;;;;;13.73;2.80;;;11.00;87.40;;;;;;5016789;28;20450;-83
2021/12/20 12:33:36;;;;;;;6.73;2.70;;;10.20;97.50;;;;;;5019859;28;20552;-80
2021/12/20 12:36:21;;;;;;;8.60;2.83;;;9.60;99.90;;;;;;5023335;28;20469;-82
2021/12/20 12:38:57;;;;;;;10.07;2.90;;;9.10;99.90;;;;;;5031923;28;20453;-79
2021/12/20 12:41:27;;;;;;;18.40;3.30;;;8.60;99.90;;;;;;5031063;28;20819;-80
2021/12/20 12:44:01;;;;;;;8.00;2.90;;;8.30;99.90;;;;;;5027689;28;20509;-80
2021/12/20 12:46:56;;;;;;;7.90;1.73;;;8.10;99.90;;;;;;5017345;28;20496;-82
2021/12/20 12:49:37;;;;;;;7.53;2.07;;;7.50;99.90;;;;;;5028998;28;20456;-81
2021/12/20 12:52:11;;;;;;;9.47;2.93;;;7.50;99.90;;;;;;5017224;28;20477;-80
2021/12/20 12:54:41;;;;;;;7.37;2.33;;;7.50;99.90;;;;;;5022109;28;20465;-83
2021/12/20 12:57:32;;;;;;;9.17;1.80;;;8.40;99.90;;;;;;5038059;28;20547;-82
2021/12/20 13:00:21;;;;;;;6.93;2.30;;;7.10;99.90;;;;;;5032606;28;20459;-82
2021/12/20 13:02:51;;;;;;;5.63;1.70;;;7.30;99.90;;;;;;5037738;28;21311;-80
2021/12/20 13:05:21;;;;;;;8.40;2.40;;;6.90;99.90;;;;;;5030916;28;20452;-81
2021/12/20 13:07:50;;;;;;;13.07;2.07;;;6.90;99.90;;;;;;5015788;28;20522;-80
2021/12/20 13:10:19;;;;;;;8.37;1.67;;;6.70;99.90;;;;;;5016405;28;20468;-82